sensor_id;sensor_type;location;lat;lon;timestamp;temperature;humidity
51839;DHT22;37886;53.174;6.368;2022-11-23T00:01:24;7.20;99.90
51839;DHT22;37886;53.174;6.368;2022-11-23T00:03:53;7.20;99.90
51839;DHT22;37886;53.174;6.368;2022-11-23T00:06:40;7.20;99.90
51839;DHT22;37886;53.174;6.368;2022-11-23T00:09:14;7.20;99.90
51839;DHT22;37886;53.174;6.368;2022-11-23T00:11:41;7.30;99.90
51839;DHT22;37886;53.174;6.368;2022-11-23T00:14:07;7.30;99.90
51839;DHT22;37886;53.174;6.368;2022-11-23T00:16:32;7.30;99.90
51839;DHT22;37886;53.174;6.368;2022-11-23T00:19:02;7.30;99.90
51839;DHT22;37886;53.174;6.368;2022-11-23T00:21:31;7.40;99.90
51839;DHT22;37886;53.174;6.368;2022-11-23T00:24:04;7.40;99.90
51839;DHT22;37886;53.174;6.368;2022-11-23T00:26:47;7.40;99.90
51839;DHT22;37886;53.174;6.368;2022-11-23T00:29:34;7.40;99.90
51839;DHT22;37886;53.174;6.368;2022-11-23T00:32:49;7.40;99.90
51839;DHT22;37886;53.174;6.368;2022-11-23T00:35:20;7.40;99.90
51839;DHT22;37886;53.174;6.368;2022-11-23T00:37:52;7.50;99.90
51839;DHT22;37886;53.174;6.368;2022-11-23T00:40:21;7.50;99.90
51839;DHT22;37886;53.174;6.368;2022-11-23T00:42:59;7.50;99.90
51839;DHT22;37886;53.174;6.368;2022-11-23T00:45:38;7.50;99.90
51839;DHT22;37886;53.174;6.368;2022-11-23T00:48:05;7.50;99.90
51839;DHT22;37886;53.174;6.368;2022-11-23T00:50:36;7.50;99.90
51839;DHT22;37886;53.174;6.368;2022-11-23T00:53:10;7.50;99.90
51839;DHT22;37886;53.174;6.368;2022-11-23T00:55:36;7.50;99.90
51839;DHT22;37886;53.174;6.368;2022-11-23T00:58:01;7.50;99.90
51839;DHT22;37886;53.174;6.368;2022-11-23T01:00:27;7.50;99.90
51839;DHT22;37886;53.174;6.368;2022-11-23T01:02:54;7.50;99.90
51839;DHT22;37886;53.174;6.368;2022-11-23T01:08:28;7.60;99.90
51839;DHT22;37886;53.174;6.368;2022-11-23T01:11:05;7.50;99.90
51839;DHT22;37886;53.174;6.368;2022-11-23T01:13:44;7.50;99.90
51839;DHT22;37886;53.174;6.368;2022-11-23T01:16:33;7.60;99.90
51839;DHT22;37886;53.174;6.368;2022-11-23T01:19:24;7.60;99.90
51839;DHT22;37886;53.174;6.368;2022-11-23T01:21:52;7.60;99.90
51839;DHT22;37886;53.174;6.368;2022-11-23T01:27:35;7.60;99.90
51839;DHT22;37886;53.174;6.368;2022-11-23T01:30:16;7.60;99.90
51839;DHT22;37886;53.174;6.368;2022-11-23T01:32:41;7.60;99.90
51839;DHT22;37886;53.174;6.368;2022-11-23T01:35:21;7.60;99.90
51839;DHT22;37886;53.174;6.368;2022-11-23T01:37:48;7.60;99.90
51839;DHT22;37886;53.174;6.368;2022-11-23T01:40:15;7.60;99.90
51839;DHT22;37886;53.174;6.368;2022-11-23T01:42:54;7.60;99.90
51839;DHT22;37886;53.174;6.368;2022-11-23T01:45:40;7.70;99.90
51839;DHT22;37886;53.174;6.368;2022-11-23T01:48:20;7.70;99.90
51839;DHT22;37886;53.174;6.368;2022-11-23T01:50:50;7.60;99.90
51839;DHT22;37886;53.174;6.368;2022-11-23T01:53:37;7.60;99.90
51839;DHT22;37886;53.174;6.368;2022-11-23T01:56:14;7.70;99.90
51839;DHT22;37886;53.174;6.368;2022-11-23T01:58:57;7.60;99.90
51839;DHT22;37886;53.174;6.368;2022-11-23T02:01:33;7.60;99.90
51839;DHT22;37886;53.174;6.368;2022-11-23T02:04:41;7.60;99.90
51839;DHT22;37886;53.174;6.368;2022-11-23T02:07:27;7.70;99.90
51839;DHT22;37886;53.174;6.368;2022-11-23T02:09:55;7.70;99.90
51839;DHT22;37886;53.174;6.368;2022-11-23T02:12:28;7.70;99.90
51839;DHT22;37886;53.174;6.368;2022-11-23T02:14:57;7.70;99.90
51839;DHT22;37886;53.174;6.368;2022-11-23T02:17:23;7.70;99.90
51839;DHT22;37886;53.174;6.368;2022-11-23T02:20:15;7.70;99.90
51839;DHT22;37886;53.174;6.368;2022-11-23T02:28:22;7.60;99.90
51839;DHT22;37886;53.174;6.368;2022-11-23T02:30:50;7.60;99.90
51839;DHT22;37886;53.174;6.368;2022-11-23T02:33:19;7.70;99.90
51839;DHT22;37886;53.174;6.368;2022-11-23T02:35:53;7.70;99.90
51839;DHT22;37886;53.174;6.368;2022-11-23T02:38:27;7.70;99.90
51839;DHT22;37886;53.174;6.368;2022-11-23T02:40:58;7.70;99.90
51839;DHT22;37886;53.174;6.368;2022-11-23T02:43:24;7.70;99.90
51839;DHT22;37886;53.174;6.368;2022-11-23T02:46:00;7.70;99.90
51839;DHT22;37886;53.174;6.368;2022-11-23T02:48:30;7.70;99.90
51839;DHT22;37886;53.174;6.368;2022-11-23T02:51:00;7.70;99.90
51839;DHT22;37886;53.174;6.368;2022-11-23T02:53:26;7.70;99.90
51839;DHT22;37886;53.174;6.368;2022-11-23T02:55:51;7.70;99.90
51839;DHT22;37886;53.174;6.368;2022-11-23T02:58:17;7.70;99.90
51839;DHT22;37886;53.174;6.368;2022-11-23T03:00:43;7.70;99.90
51839;DHT22;37886;53.174;6.368;2022-11-23T03:03:12;7.70;99.90
51839;DHT22;37886;53.174;6.368;2022-11-23T03:05:38;7.70;99.90
51839;DHT22;37886;53.174;6.368;2022-11-23T03:08:08;7.80;99.90
51839;DHT22;37886;53.174;6.368;2022-11-23T03:10:35;7.80;99.90
51839;DHT22;37886;53.174;6.368;2022-11-23T03:13:06;7.80;99.90
51839;DHT22;37886;53.174;6.368;2022-11-23T03:15:41;7.80;99.90
51839;DHT22;37886;53.174;6.368;2022-11-23T03:18:19;7.80;99.90
51839;DHT22;37886;53.174;6.368;2022-11-23T03:20:44;7.80;99.90
51839;DHT22;37886;53.174;6.368;2022-11-23T03:23:10;7.80;99.90
51839;DHT22;37886;53.174;6.368;2022-11-23T03:25:36;7.70;99.90
51839;DHT22;37886;53.174;6.368;2022-11-23T03:28:01;7.80;99.90
51839;DHT22;37886;53.174;6.368;2022-11-23T03:30:27;7.70;99.90
51839;DHT22;37886;53.174;6.368;2022-11-23T03:32:53;7.70;99.90
51839;DHT22;37886;53.174;6.368;2022-11-23T03:35:18;7.70;99.90
51839;DHT22;37886;53.174;6.368;2022-11-23T03:37:44;7.70;99.90
51839;DHT22;37886;53.174;6.368;2022-11-23T03:40:10;7.70;99.90
51839;DHT22;37886;53.174;6.368;2022-11-23T03:42:38;7.70;99.90
51839;DHT22;37886;53.174;6.368;2022-11-23T03:45:05;7.70;99.90
51839;DHT22;37886;53.174;6.368;2022-11-23T03:47:31;7.70;99.90
51839;DHT22;37886;53.174;6.368;2022-11-23T03:49:56;7.70;99.90
51839;DHT22;37886;53.174;6.368;2022-11-23T03:52:22;7.70;99.90
51839;DHT22;37886;53.174;6.368;2022-11-23T03:54:48;7.70;99.90
51839;DHT22;37886;53.174;6.368;2022-11-23T03:57:13;7.70;99.90
51839;DHT22;37886;53.174;6.368;2022-11-23T03:59:39;7.70;99.90
51839;DHT22;37886;53.174;6.368;2022-11-23T04:02:05;7.70;99.90
51839;DHT22;37886;53.174;6.368;2022-11-23T04:04:32;7.70;99.90
51839;DHT22;37886;53.174;6.368;2022-11-23T04:06:58;7.70;99.90
51839;DHT22;37886;53.174;6.368;2022-11-23T04:09:24;7.70;99.90
51839;DHT22;37886;53.174;6.368;2022-11-23T04:11:50;7.70;99.90
51839;DHT22;37886;53.174;6.368;2022-11-23T04:14:15;7.60;99.90
51839;DHT22;37886;53.174;6.368;2022-11-23T04:16:41;7.60;99.90
51839;DHT22;37886;53.174;6.368;2022-11-23T04:19:07;7.60;99.90
51839;DHT22;37886;53.174;6.368;2022-11-23T04:21:33;7.60;99.90
51839;DHT22;37886;53.174;6.368;2022-11-23T04:23:58;7.60;99.90
51839;DHT22;37886;53.174;6.368;2022-11-23T04:26:24;7.60;99.90
51839;DHT22;37886;53.174;6.368;2022-11-23T04:28:50;7.70;99.90
51839;DHT22;37886;53.174;6.368;2022-11-23T04:31:16;7.60;99.90
51839;DHT22;37886;53.174;6.368;2022-11-23T04:33:44;7.60;99.90
51839;DHT22;37886;53.174;6.368;2022-11-23T04:36:10;7.70;99.90
51839;DHT22;37886;53.174;6.368;2022-11-23T04:38:35;7.60;99.90
51839;DHT22;37886;53.174;6.368;2022-11-23T04:41:01;7.60;99.90
51839;DHT22;37886;53.174;6.368;2022-11-23T04:43:26;7.60;99.90
51839;DHT22;37886;53.174;6.368;2022-11-23T04:45:53;7.60;99.90
51839;DHT22;37886;53.174;6.368;2022-11-23T04:48:18;7.60;99.90
51839;DHT22;37886;53.174;6.368;2022-11-23T04:50:44;7.60;99.90
51839;DHT22;37886;53.174;6.368;2022-11-23T04:53:10;7.50;99.90
51839;DHT22;37886;53.174;6.368;2022-11-23T04:55:35;7.50;99.90
51839;DHT22;37886;53.174;6.368;2022-11-23T04:58:01;7.50;99.90
51839;DHT22;37886;53.174;6.368;2022-11-23T05:00:27;7.50;99.90
51839;DHT22;37886;53.174;6.368;2022-11-23T05:02:52;7.50;99.90
51839;DHT22;37886;53.174;6.368;2022-11-23T05:05:18;7.50;99.90
51839;DHT22;37886;53.174;6.368;2022-11-23T05:07:44;7.50;99.90
51839;DHT22;37886;53.174;6.368;2022-11-23T05:10:10;7.50;99.90
51839;DHT22;37886;53.174;6.368;2022-11-23T05:12:35;7.50;99.90
51839;DHT22;37886;53.174;6.368;2022-11-23T05:15:04;7.50;99.90
51839;DHT22;37886;53.174;6.368;2022-11-23T05:17:30;7.60;99.90
51839;DHT22;37886;53.174;6.368;2022-11-23T05:19:56;7.60;99.90
51839;DHT22;37886;53.174;6.368;2022-11-23T05:22:24;7.70;99.90
51839;DHT22;37886;53.174;6.368;2022-11-23T05:24:50;7.70;99.90
51839;DHT22;37886;53.174;6.368;2022-11-23T05:27:15;7.70;99.90
51839;DHT22;37886;53.174;6.368;2022-11-23T05:29:41;7.70;99.90
51839;DHT22;37886;53.174;6.368;2022-11-23T05:32:07;7.70;99.90
51839;DHT22;37886;53.174;6.368;2022-11-23T05:34:32;7.70;99.90
51839;DHT22;37886;53.174;6.368;2022-11-23T05:36:58;7.70;99.90
51839;DHT22;37886;53.174;6.368;2022-11-23T05:39:24;7.70;99.90
51839;DHT22;37886;53.174;6.368;2022-11-23T05:41:49;7.70;99.90
51839;DHT22;37886;53.174;6.368;2022-11-23T05:44:15;7.70;99.90
51839;DHT22;37886;53.174;6.368;2022-11-23T05:46:41;7.80;99.90
51839;DHT22;37886;53.174;6.368;2022-11-23T05:49:08;7.70;99.90
51839;DHT22;37886;53.174;6.368;2022-11-23T05:51:33;7.80;99.90
51839;DHT22;37886;53.174;6.368;2022-11-23T05:54:00;7.80;99.90
51839;DHT22;37886;53.174;6.368;2022-11-23T05:56:26;7.80;99.90
51839;DHT22;37886;53.174;6.368;2022-11-23T05:58:54;7.80;99.90
51839;DHT22;37886;53.174;6.368;2022-11-23T06:01:21;7.80;99.90
51839;DHT22;37886;53.174;6.368;2022-11-23T06:03:49;7.80;99.90
51839;DHT22;37886;53.174;6.368;2022-11-23T06:06:14;7.80;99.90
51839;DHT22;37886;53.174;6.368;2022-11-23T06:08:40;7.80;99.90
51839;DHT22;37886;53.174;6.368;2022-11-23T06:11:06;7.80;99.90
51839;DHT22;37886;53.174;6.368;2022-11-23T06:13:31;7.80;99.90
51839;DHT22;37886;53.174;6.368;2022-11-23T06:15:57;7.80;99.90
51839;DHT22;37886;53.174;6.368;2022-11-23T06:18:23;7.80;99.90
51839;DHT22;37886;53.174;6.368;2022-11-23T06:20:49;7.80;99.90
51839;DHT22;37886;53.174;6.368;2022-11-23T06:23:14;7.80;99.90
51839;DHT22;37886;53.174;6.368;2022-11-23T06:25:40;7.80;99.90
51839;DHT22;37886;53.174;6.368;2022-11-23T06:28:08;7.80;99.90
51839;DHT22;37886;53.174;6.368;2022-11-23T06:30:34;7.80;99.90
51839;DHT22;37886;53.174;6.368;2022-11-23T06:33:03;7.80;99.90
51839;DHT22;37886;53.174;6.368;2022-11-23T06:35:30;7.80;99.90
51839;DHT22;37886;53.174;6.368;2022-11-23T06:37:55;7.80;99.90
51839;DHT22;37886;53.174;6.368;2022-11-23T06:40:21;7.80;99.90
51839;DHT22;37886;53.174;6.368;2022-11-23T06:42:47;7.80;99.90
51839;DHT22;37886;53.174;6.368;2022-11-23T06:45:12;7.70;99.90
51839;DHT22;37886;53.174;6.368;2022-11-23T06:47:38;7.70;99.90
51839;DHT22;37886;53.174;6.368;2022-11-23T06:50:05;7.70;99.90
51839;DHT22;37886;53.174;6.368;2022-11-23T06:52:31;7.70;99.90
51839;DHT22;37886;53.174;6.368;2022-11-23T06:54:57;7.60;99.90
51839;DHT22;37886;53.174;6.368;2022-11-23T06:57:33;7.70;99.90
51839;DHT22;37886;53.174;6.368;2022-11-23T07:00:37;7.70;99.90
51839;DHT22;37886;53.174;6.368;2022-11-23T07:03:03;7.60;99.90
51839;DHT22;37886;53.174;6.368;2022-11-23T07:05:41;7.60;99.90
51839;DHT22;37886;53.174;6.368;2022-11-23T07:08:07;7.50;99.90
51839;DHT22;37886;53.174;6.368;2022-11-23T07:10:33;7.60;99.90
51839;DHT22;37886;53.174;6.368;2022-11-23T07:13:03;7.50;99.90
51839;DHT22;37886;53.174;6.368;2022-11-23T07:15:33;7.50;99.90
51839;DHT22;37886;53.174;6.368;2022-11-23T07:18:01;7.50;99.90
51839;DHT22;37886;53.174;6.368;2022-11-23T07:20:27;7.50;99.90
51839;DHT22;37886;53.174;6.368;2022-11-23T07:23:05;7.40;99.90
51839;DHT22;37886;53.174;6.368;2022-11-23T07:25:32;7.50;99.90
51839;DHT22;37886;53.174;6.368;2022-11-23T07:31:48;7.50;99.90
51839;DHT22;37886;53.174;6.368;2022-11-23T07:34:41;7.50;99.90
51839;DHT22;37886;53.174;6.368;2022-11-23T07:37:28;7.50;99.90
51839;DHT22;37886;53.174;6.368;2022-11-23T07:39:58;7.50;99.90
51839;DHT22;37886;53.174;6.368;2022-11-23T07:42:31;7.50;99.90
51839;DHT22;37886;53.174;6.368;2022-11-23T07:45:07;7.50;99.90
51839;DHT22;37886;53.174;6.368;2022-11-23T07:48:42;7.50;99.90
51839;DHT22;37886;53.174;6.368;2022-11-23T07:51:23;7.50;99.90
51839;DHT22;37886;53.174;6.368;2022-11-23T07:55:18;7.50;99.90
51839;DHT22;37886;53.174;6.368;2022-11-23T08:28:06;7.70;99.90
51839;DHT22;37886;53.174;6.368;2022-11-23T08:30:38;7.70;99.90
51839;DHT22;37886;53.174;6.368;2022-11-23T08:33:14;7.70;99.90
51839;DHT22;37886;53.174;6.368;2022-11-23T08:35:41;7.80;99.90
51839;DHT22;37886;53.174;6.368;2022-11-23T08:38:28;7.80;99.90
51839;DHT22;37886;53.174;6.368;2022-11-23T08:41:03;7.80;99.90
51839;DHT22;37886;53.174;6.368;2022-11-23T08:43:30;7.90;99.90
51839;DHT22;37886;53.174;6.368;2022-11-23T08:45:59;7.90;99.90
51839;DHT22;37886;53.174;6.368;2022-11-23T08:48:25;7.90;99.90
51839;DHT22;37886;53.174;6.368;2022-11-23T08:51:10;7.90;99.90
51839;DHT22;37886;53.174;6.368;2022-11-23T08:53:45;7.90;99.90
51839;DHT22;37886;53.174;6.368;2022-11-23T08:56:28;8.00;99.90
51839;DHT22;37886;53.174;6.368;2022-11-23T08:59:33;8.00;99.90
51839;DHT22;37886;53.174;6.368;2022-11-23T09:02:23;8.00;99.90
51839;DHT22;37886;53.174;6.368;2022-11-23T09:04:51;8.10;99.90
51839;DHT22;37886;53.174;6.368;2022-11-23T09:07:35;8.10;99.90
51839;DHT22;37886;53.174;6.368;2022-11-23T09:10:06;8.20;99.90
51839;DHT22;37886;53.174;6.368;2022-11-23T09:12:32;8.20;99.90
51839;DHT22;37886;53.174;6.368;2022-11-23T09:15:06;8.20;99.90
51839;DHT22;37886;53.174;6.368;2022-11-23T09:17:34;8.30;99.90
51839;DHT22;37886;53.174;6.368;2022-11-23T09:20:12;8.30;99.90
51839;DHT22;37886;53.174;6.368;2022-11-23T09:22:39;8.40;99.90
51839;DHT22;37886;53.174;6.368;2022-11-23T09:25:19;8.40;99.90
51839;DHT22;37886;53.174;6.368;2022-11-23T09:28:03;8.50;99.90
51839;DHT22;37886;53.174;6.368;2022-11-23T09:31:02;8.60;99.90
51839;DHT22;37886;53.174;6.368;2022-11-23T09:33:54;8.70;99.90
51839;DHT22;37886;53.174;6.368;2022-11-23T09:36:24;8.70;99.90
51839;DHT22;37886;53.174;6.368;2022-11-23T09:38:50;8.80;99.90
51839;DHT22;37886;53.174;6.368;2022-11-23T09:44:19;8.80;99.90
51839;DHT22;37886;53.174;6.368;2022-11-23T09:49:37;8.80;99.90
51839;DHT22;37886;53.174;6.368;2022-11-23T09:52:19;8.70;99.90
51839;DHT22;37886;53.174;6.368;2022-11-23T09:55:17;8.70;99.90
51839;DHT22;37886;53.174;6.368;2022-11-23T09:57:59;8.70;99.90
51839;DHT22;37886;53.174;6.368;2022-11-23T10:00:25;8.80;99.90
51839;DHT22;37886;53.174;6.368;2022-11-23T10:02:52;8.70;99.90
51839;DHT22;37886;53.174;6.368;2022-11-23T10:05:22;8.70;99.90
51839;DHT22;37886;53.174;6.368;2022-11-23T10:18:02;8.70;99.90
51839;DHT22;37886;53.174;6.368;2022-11-23T10:20:54;8.70;99.90
51839;DHT22;37886;53.174;6.368;2022-11-23T10:23:58;8.80;99.90
51839;DHT22;37886;53.174;6.368;2022-11-23T10:26:31;8.70;99.90
51839;DHT22;37886;53.174;6.368;2022-11-23T10:31:51;8.80;99.90
51839;DHT22;37886;53.174;6.368;2022-11-23T10:34:25;8.80;99.90
51839;DHT22;37886;53.174;6.368;2022-11-23T10:36:58;8.80;99.90
51839;DHT22;37886;53.174;6.368;2022-11-23T10:39:26;9.00;99.90
51839;DHT22;37886;53.174;6.368;2022-11-23T10:41:55;9.00;99.90
51839;DHT22;37886;53.174;6.368;2022-11-23T10:44:33;9.10;99.90
51839;DHT22;37886;53.174;6.368;2022-11-23T10:47:01;9.10;99.90
51839;DHT22;37886;53.174;6.368;2022-11-23T10:49:28;9.00;99.90
51839;DHT22;37886;53.174;6.368;2022-11-23T10:52:29;9.00;99.90
51839;DHT22;37886;53.174;6.368;2022-11-23T10:54:58;8.90;99.90
51839;DHT22;37886;53.174;6.368;2022-11-23T10:57:34;8.80;99.90
51839;DHT22;37886;53.174;6.368;2022-11-23T11:02:45;9.00;99.90
51839;DHT22;37886;53.174;6.368;2022-11-23T11:07:58;9.10;99.90
51839;DHT22;37886;53.174;6.368;2022-11-23T11:10:47;8.90;99.90
51839;DHT22;37886;53.174;6.368;2022-11-23T11:13:29;8.80;99.90
51839;DHT22;37886;53.174;6.368;2022-11-23T11:16:03;8.80;99.90
51839;DHT22;37886;53.174;6.368;2022-11-23T11:18:34;9.10;99.90
51839;DHT22;37886;53.174;6.368;2022-11-23T11:21:08;9.40;99.90
51839;DHT22;37886;53.174;6.368;2022-11-23T11:24:35;9.40;99.90
51839;DHT22;37886;53.174;6.368;2022-11-23T11:26:48;9.70;99.90
51839;DHT22;37886;53.174;6.368;2022-11-23T11:34:48;9.80;99.90
51839;DHT22;37886;53.174;6.368;2022-11-23T11:37:21;9.70;99.90
51839;DHT22;37886;53.174;6.368;2022-11-23T11:39:54;9.60;99.90
51839;DHT22;37886;53.174;6.368;2022-11-23T11:42:36;9.50;99.90
51839;DHT22;37886;53.174;6.368;2022-11-23T11:45:05;9.50;99.90
51839;DHT22;37886;53.174;6.368;2022-11-23T11:47:42;9.60;99.90
51839;DHT22;37886;53.174;6.368;2022-11-23T11:50:31;9.50;99.90
51839;DHT22;37886;53.174;6.368;2022-11-23T11:53:11;9.70;99.90
51839;DHT22;37886;53.174;6.368;2022-11-23T11:56:04;9.90;99.90
51839;DHT22;37886;53.174;6.368;2022-11-23T11:58:36;10.00;99.90
51839;DHT22;37886;53.174;6.368;2022-11-23T12:04:10;10.00;99.90
51839;DHT22;37886;53.174;6.368;2022-11-23T12:06:45;10.40;99.90
51839;DHT22;37886;53.174;6.368;2022-11-23T12:09:16;10.30;99.90
51839;DHT22;37886;53.174;6.368;2022-11-23T12:11:44;10.40;99.90
51839;DHT22;37886;53.174;6.368;2022-11-23T12:14:12;10.60;99.90
51839;DHT22;37886;53.174;6.368;2022-11-23T12:17:04;10.70;99.90
51839;DHT22;37886;53.174;6.368;2022-11-23T12:34:03;10.30;99.90
51839;DHT22;37886;53.174;6.368;2022-11-23T12:42:36;10.50;99.90
51839;DHT22;37886;53.174;6.368;2022-11-23T12:51:08;10.90;99.90
51839;DHT22;37886;53.174;6.368;2022-11-23T12:59:09;11.80;99.90
51839;DHT22;37886;53.174;6.368;2022-11-23T13:01:40;11.60;99.90
51839;DHT22;37886;53.174;6.368;2022-11-23T13:04:39;11.50;99.90
51839;DHT22;37886;53.174;6.368;2022-11-23T13:07:27;11.80;99.90
51839;DHT22;37886;53.174;6.368;2022-11-23T13:10:04;12.40;99.90
51839;DHT22;37886;53.174;6.368;2022-11-23T13:23:55;10.60;99.90
51839;DHT22;37886;53.174;6.368;2022-11-23T13:26:26;10.40;99.90
51839;DHT22;37886;53.174;6.368;2022-11-23T13:28:56;10.30;99.90
51839;DHT22;37886;53.174;6.368;2022-11-23T13:31:29;10.30;99.90
51839;DHT22;37886;53.174;6.368;2022-11-23T13:34:02;10.30;99.90
51839;DHT22;37886;53.174;6.368;2022-11-23T13:36:58;10.30;99.90
51839;DHT22;37886;53.174;6.368;2022-11-23T13:42:09;10.10;99.90
51839;DHT22;37886;53.174;6.368;2022-11-23T13:44:35;10.20;99.90
51839;DHT22;37886;53.174;6.368;2022-11-23T13:49:51;9.90;99.90
51839;DHT22;37886;53.174;6.368;2022-11-23T13:52:23;9.80;99.90
51839;DHT22;37886;53.174;6.368;2022-11-23T13:57:28;9.70;99.90
51839;DHT22;37886;53.174;6.368;2022-11-23T14:06:04;9.80;99.90
51839;DHT22;37886;53.174;6.368;2022-11-23T14:08:54;9.70;99.90
51839;DHT22;37886;53.174;6.368;2022-11-23T14:12:04;9.60;99.90
51839;DHT22;37886;53.174;6.368;2022-11-23T14:28:48;9.20;99.90
51839;DHT22;37886;53.174;6.368;2022-11-23T14:34:44;8.90;99.90
51839;DHT22;37886;53.174;6.368;2022-11-23T14:37:29;8.80;99.90
51839;DHT22;37886;53.174;6.368;2022-11-23T14:43:15;8.80;99.90
51839;DHT22;37886;53.174;6.368;2022-11-23T14:45:44;8.60;99.90
51839;DHT22;37886;53.174;6.368;2022-11-23T14:48:33;8.50;99.90
51839;DHT22;37886;53.174;6.368;2022-11-23T14:51:02;8.60;99.90
51839;DHT22;37886;53.174;6.368;2022-11-23T14:53:34;8.50;99.90
51839;DHT22;37886;53.174;6.368;2022-11-23T14:56:00;8.50;99.90
51839;DHT22;37886;53.174;6.368;2022-11-23T14:58:30;8.50;99.90
51839;DHT22;37886;53.174;6.368;2022-11-23T15:01:00;8.40;99.90
51839;DHT22;37886;53.174;6.368;2022-11-23T15:03:29;8.40;99.90
51839;DHT22;37886;53.174;6.368;2022-11-23T15:06:07;8.40;99.90
51839;DHT22;37886;53.174;6.368;2022-11-23T15:08:49;8.40;99.90
51839;DHT22;37886;53.174;6.368;2022-11-23T15:11:19;8.50;99.90
51839;DHT22;37886;53.174;6.368;2022-11-23T15:13:47;8.50;99.90
51839;DHT22;37886;53.174;6.368;2022-11-23T15:16:16;8.40;99.90
51839;DHT22;37886;53.174;6.368;2022-11-23T15:18:42;8.30;99.90
51839;DHT22;37886;53.174;6.368;2022-11-23T15:23:38;8.20;99.90
51839;DHT22;37886;53.174;6.368;2022-11-23T15:26:11;8.30;99.90
51839;DHT22;37886;53.174;6.368;2022-11-23T15:28:37;8.30;99.90
51839;DHT22;37886;53.174;6.368;2022-11-23T15:31:25;8.40;99.90
51839;DHT22;37886;53.174;6.368;2022-11-23T15:33:59;8.50;99.90
51839;DHT22;37886;53.174;6.368;2022-11-23T15:36:32;8.50;99.90
51839;DHT22;37886;53.174;6.368;2022-11-23T15:39:00;8.60;99.90
51839;DHT22;37886;53.174;6.368;2022-11-23T15:41:27;8.60;99.90
51839;DHT22;37886;53.174;6.368;2022-11-23T15:43:59;8.60;99.90
51839;DHT22;37886;53.174;6.368;2022-11-23T15:46:28;8.70;99.90
51839;DHT22;37886;53.174;6.368;2022-11-23T15:48:59;8.70;99.90
51839;DHT22;37886;53.174;6.368;2022-11-23T15:51:34;8.70;99.90
51839;DHT22;37886;53.174;6.368;2022-11-23T15:54:01;8.60;99.90
51839;DHT22;37886;53.174;6.368;2022-11-23T15:56:34;8.40;99.90
51839;DHT22;37886;53.174;6.368;2022-11-23T15:59:03;8.30;99.90
51839;DHT22;37886;53.174;6.368;2022-11-23T16:01:28;8.20;99.90
51839;DHT22;37886;53.174;6.368;2022-11-23T16:03:59;8.10;99.90
51839;DHT22;37886;53.174;6.368;2022-11-23T16:06:36;8.10;99.90
51839;DHT22;37886;53.174;6.368;2022-11-23T16:09:30;8.10;99.90
51839;DHT22;37886;53.174;6.368;2022-11-23T16:11:49;8.10;99.90
51839;DHT22;37886;53.174;6.368;2022-11-23T16:14:25;8.10;99.90
51839;DHT22;37886;53.174;6.368;2022-11-23T16:17:21;8.00;99.90
51839;DHT22;37886;53.174;6.368;2022-11-23T16:19:53;8.10;99.90
51839;DHT22;37886;53.174;6.368;2022-11-23T16:24:49;8.30;99.90
51839;DHT22;37886;53.174;6.368;2022-11-23T16:27:15;8.20;99.90
51839;DHT22;37886;53.174;6.368;2022-11-23T16:29:49;8.20;99.90
51839;DHT22;37886;53.174;6.368;2022-11-23T16:32:27;8.20;99.90
51839;DHT22;37886;53.174;6.368;2022-11-23T16:34:54;8.20;99.90
51839;DHT22;37886;53.174;6.368;2022-11-23T16:37:22;8.20;99.90
51839;DHT22;37886;53.174;6.368;2022-11-23T16:39:49;8.20;99.90
51839;DHT22;37886;53.174;6.368;2022-11-23T16:42:16;8.20;99.90
51839;DHT22;37886;53.174;6.368;2022-11-23T16:44:42;8.20;99.90
51839;DHT22;37886;53.174;6.368;2022-11-23T16:47:23;8.10;99.90
51839;DHT22;37886;53.174;6.368;2022-11-23T16:49:49;8.20;99.90
51839;DHT22;37886;53.174;6.368;2022-11-23T16:52:15;8.20;99.90
51839;DHT22;37886;53.174;6.368;2022-11-23T16:54:41;8.20;99.90
51839;DHT22;37886;53.174;6.368;2022-11-23T16:57:19;8.20;99.90
51839;DHT22;37886;53.174;6.368;2022-11-23T16:59:47;8.10;99.90
51839;DHT22;37886;53.174;6.368;2022-11-23T17:02:14;8.10;99.90
51839;DHT22;37886;53.174;6.368;2022-11-23T17:04:41;8.10;99.90
51839;DHT22;37886;53.174;6.368;2022-11-23T17:07:06;8.10;99.90
51839;DHT22;37886;53.174;6.368;2022-11-23T17:09:32;8.10;99.90
51839;DHT22;37886;53.174;6.368;2022-11-23T17:11:58;8.10;99.90
51839;DHT22;37886;53.174;6.368;2022-11-23T17:14:23;8.00;99.90
51839;DHT22;37886;53.174;6.368;2022-11-23T17:16:50;8.00;99.90
51839;DHT22;37886;53.174;6.368;2022-11-23T17:19:23;7.90;99.90
51839;DHT22;37886;53.174;6.368;2022-11-23T17:21:49;7.90;99.90
51839;DHT22;37886;53.174;6.368;2022-11-23T17:24:15;7.90;99.90
51839;DHT22;37886;53.174;6.368;2022-11-23T17:26:41;7.80;99.90
51839;DHT22;37886;53.174;6.368;2022-11-23T17:29:16;7.80;99.90
51839;DHT22;37886;53.174;6.368;2022-11-23T17:31:47;7.80;99.90
51839;DHT22;37886;53.174;6.368;2022-11-23T17:34:14;7.70;99.90
51839;DHT22;37886;53.174;6.368;2022-11-23T17:36:40;7.60;99.90
51839;DHT22;37886;53.174;6.368;2022-11-23T17:39:07;7.60;99.90
51839;DHT22;37886;53.174;6.368;2022-11-23T17:41:34;7.50;99.90
51839;DHT22;37886;53.174;6.368;2022-11-23T17:43:59;7.50;99.90
51839;DHT22;37886;53.174;6.368;2022-11-23T17:46:26;7.50;99.90
51839;DHT22;37886;53.174;6.368;2022-11-23T17:48:57;7.50;99.90
51839;DHT22;37886;53.174;6.368;2022-11-23T17:51:24;7.50;99.90
51839;DHT22;37886;53.174;6.368;2022-11-23T17:53:50;7.50;99.90
51839;DHT22;37886;53.174;6.368;2022-11-23T17:56:21;7.40;99.90
51839;DHT22;37886;53.174;6.368;2022-11-23T17:58:48;7.40;99.90
51839;DHT22;37886;53.174;6.368;2022-11-23T18:01:15;7.50;99.90
51839;DHT22;37886;53.174;6.368;2022-11-23T18:03:43;7.50;99.90
51839;DHT22;37886;53.174;6.368;2022-11-23T18:06:13;7.50;99.90
51839;DHT22;37886;53.174;6.368;2022-11-23T18:08:40;7.50;99.90
51839;DHT22;37886;53.174;6.368;2022-11-23T18:11:06;7.50;99.90
51839;DHT22;37886;53.174;6.368;2022-11-23T18:13:31;7.50;99.90
51839;DHT22;37886;53.174;6.368;2022-11-23T18:15:57;7.50;99.90
51839;DHT22;37886;53.174;6.368;2022-11-23T18:18:23;7.50;99.90
51839;DHT22;37886;53.174;6.368;2022-11-23T18:20:48;7.40;99.90
51839;DHT22;37886;53.174;6.368;2022-11-23T18:23:22;7.40;99.90
51839;DHT22;37886;53.174;6.368;2022-11-23T18:26:00;7.40;99.90
51839;DHT22;37886;53.174;6.368;2022-11-23T18:28:26;7.40;99.90
51839;DHT22;37886;53.174;6.368;2022-11-23T18:30:53;7.40;99.90
51839;DHT22;37886;53.174;6.368;2022-11-23T18:33:19;7.40;99.90
51839;DHT22;37886;53.174;6.368;2022-11-23T18:35:45;7.40;99.90
51839;DHT22;37886;53.174;6.368;2022-11-23T18:38:10;7.30;99.90
51839;DHT22;37886;53.174;6.368;2022-11-23T18:40:39;7.30;99.90
51839;DHT22;37886;53.174;6.368;2022-11-23T18:43:05;7.30;99.90
51839;DHT22;37886;53.174;6.368;2022-11-23T18:45:30;7.30;99.90
51839;DHT22;37886;53.174;6.368;2022-11-23T18:47:56;7.30;99.90
51839;DHT22;37886;53.174;6.368;2022-11-23T18:50:25;7.30;99.90
51839;DHT22;37886;53.174;6.368;2022-11-23T18:52:50;7.30;99.90
51839;DHT22;37886;53.174;6.368;2022-11-23T18:55:16;7.40;99.90
51839;DHT22;37886;53.174;6.368;2022-11-23T18:57:42;7.40;99.90